Time;durP1;ratioP1;P1;durP2;ratioP2;P2;SDS_P1;SDS_P2;PMS_P1;PMS_P2;Temp;Humidity;BMP_temperature;BMP_pressure;BME280_temperature;BME280_humidity;BME280_pressure;Samples;Min_cycle;Max_cycle;Signal;HPM_P1;HPM_P2
2023/10/28 00:00:38;;;;;;;6.43;3.17;;;10.30;99.90;;;;;;4943553;29;20221;-71
2023/10/28 00:03:05;;;;;;;3.70;2.20;;;10.30;99.90;;;;;;4937565;29;20462;-70
2023/10/28 00:05:31;;;;;;;4.80;2.50;;;10.30;99.90;;;;;;4924633;29;20466;-70
2023/10/28 00:07:57;;;;;;;5.83;2.43;;;10.20;99.90;;;;;;4934166;29;20481;-71
2023/10/28 00:10:23;;;;;;;2.80;2.00;;;10.20;99.90;;;;;;4925114;29;20190;-71
2023/10/28 00:12:50;;;;;;;4.20;2.63;;;10.20;99.90;;;;;;4933698;29;20539;-70
2023/10/28 00:15:18;;;;;;;5.27;2.63;;;10.20;99.90;;;;;;4924736;29;20449;-71
2023/10/28 00:17:47;;;;;;;4.20;2.97;;;10.20;99.90;;;;;;4941299;29;20494;-70
2023/10/28 00:20:18;;;;;;;4.30;2.50;;;10.20;99.90;;;;;;4943678;29;20513;-72
2023/10/28 00:22:47;;;;;;;5.43;3.50;;;10.20;99.90;;;;;;4928633;29;20435;-72
2023/10/28 00:25:15;;;;;;;5.87;3.37;;;10.20;99.90;;;;;;4931858;29;20741;-71
2023/10/28 00:27:42;;;;;;;4.77;3.20;;;10.20;99.90;;;;;;4937655;29;20459;-71
2023/10/28 00:30:11;;;;;;;5.57;3.47;;;10.20;99.90;;;;;;4940976;29;20426;-71
2023/10/28 00:32:37;;;;;;;4.10;2.60;;;10.20;99.90;;;;;;4926463;29;20429;-70
2023/10/28 00:35:07;;;;;;;5.90;3.30;;;10.20;99.90;;;;;;4920681;29;20516;-71
2023/10/28 00:37:35;;;;;;;3.20;2.40;;;10.20;99.90;;;;;;4930349;29;20880;-69
2023/10/28 00:40:01;;;;;;;4.40;2.67;;;10.20;99.90;;;;;;4938067;29;20458;-70
2023/10/28 00:42:27;;;;;;;4.13;3.10;;;10.10;99.90;;;;;;4935459;29;20442;-71
2023/10/28 00:44:55;;;;;;;4.10;2.50;;;10.10;99.90;;;;;;4934441;29;20564;-70
2023/10/28 00:47:23;;;;;;;3.33;2.40;;;10.10;99.90;;;;;;4933544;29;20288;-70
2023/10/28 00:49:50;;;;;;;2.63;2.20;;;10.10;99.90;;;;;;4942255;29;20450;-70
2023/10/28 00:52:19;;;;;;;2.73;1.80;;;10.10;99.90;;;;;;4926965;29;20769;-72
2023/10/28 00:54:47;;;;;;;2.30;1.87;;;10.10;99.90;;;;;;4910769;29;20537;-72
2023/10/28 00:57:15;;;;;;;2.67;1.83;;;10.00;99.90;;;;;;4932359;29;20466;-70
2023/10/28 00:59:42;;;;;;;3.13;1.90;;;10.10;99.90;;;;;;4933566;29;20478;-72
2023/10/28 01:02:09;;;;;;;3.03;2.17;;;10.10;99.90;;;;;;4937448;29;20414;-73
2023/10/28 01:04:34;;;;;;;2.70;1.77;;;10.10;99.90;;;;;;4927927;29;20434;-70
2023/10/28 01:07:02;;;;;;;3.17;2.27;;;10.10;99.90;;;;;;4915584;29;20434;-70
2023/10/28 01:09:28;;;;;;;3.93;3.10;;;10.10;99.90;;;;;;4926408;29;20292;-70
2023/10/28 01:11:54;;;;;;;3.60;2.77;;;10.10;99.90;;;;;;4928141;29;20429;-70
2023/10/28 01:14:20;;;;;;;5.60;2.70;;;10.10;99.90;;;;;;4937533;29;20272;-71
2023/10/28 01:16:46;;;;;;;3.10;2.30;;;10.10;99.90;;;;;;4905445;29;20175;-71
2023/10/28 01:19:13;;;;;;;5.00;3.93;;;10.10;99.90;;;;;;4934655;29;20476;-71
2023/10/28 01:21:40;;;;;;;3.47;2.20;;;10.10;99.90;;;;;;4929625;29;20410;-71
2023/10/28 01:24:07;;;;;;;2.70;2.37;;;10.10;99.90;;;;;;4931718;29;20178;-71
2023/10/28 01:26:33;;;;;;;4.20;2.67;;;10.10;99.90;;;;;;4908339;29;20452;-71
2023/10/28 01:29:00;;;;;;;6.00;3.17;;;10.10;99.90;;;;;;4942655;29;20433;-71
2023/10/28 01:31:26;;;;;;;3.00;2.47;;;10.20;99.90;;;;;;4914412;29;20441;-71
2023/10/28 01:33:52;;;;;;;2.93;2.50;;;10.20;99.90;;;;;;4931284;29;20493;-70
2023/10/28 01:36:18;;;;;;;2.67;2.40;;;10.20;99.90;;;;;;4921999;29;20443;-70
2023/10/28 01:38:43;;;;;;;3.10;2.43;;;10.10;99.90;;;;;;4940070;29;20202;-70
2023/10/28 01:41:12;;;;;;;5.17;3.13;;;10.20;99.90;;;;;;4936733;29;20198;-69
2023/10/28 01:43:46;;;;;;;7.00;2.47;;;10.20;99.90;;;;;;4925697;29;20416;-71
2023/10/28 01:46:12;;;;;;;4.67;3.03;;;10.20;99.90;;;;;;4931396;29;20437;-69
2023/10/28 01:48:37;;;;;;;6.20;4.13;;;10.20;99.90;;;;;;4931527;29;20680;-71
2023/10/28 01:51:03;;;;;;;4.47;3.77;;;10.10;99.90;;;;;;4922358;29;20418;-70
2023/10/28 01:53:30;;;;;;;3.70;3.30;;;10.10;99.90;;;;;;4922059;29;20269;-70
2023/10/28 01:55:57;;;;;;;3.60;2.93;;;10.10;99.90;;;;;;4930666;29;20538;-71
2023/10/28 01:58:24;;;;;;;4.57;3.30;;;10.20;99.90;;;;;;4903958;29;20506;-70
2023/10/28 02:00:50;;;;;;;4.20;3.10;;;10.20;99.90;;;;;;4917849;29;20422;-70
2023/10/28 02:03:15;;;;;;;4.03;3.17;;;10.20;99.90;;;;;;4932097;29;20719;-71
2023/10/28 02:05:41;;;;;;;5.07;3.17;;;10.20;99.90;;;;;;4904249;29;20215;-70
2023/10/28 02:08:06;;;;;;;4.37;2.83;;;10.20;99.90;;;;;;4920699;29;20241;-71
2023/10/28 02:10:33;;;;;;;4.70;2.70;;;10.20;99.90;;;;;;4932525;29;20182;-69
2023/10/28 02:12:58;;;;;;;3.10;2.80;;;10.20;99.90;;;;;;4927579;29;20249;-70
2023/10/28 02:15:25;;;;;;;2.43;2.20;;;10.20;99.90;;;;;;4909371;29;20462;-70
2023/10/28 02:17:51;;;;;;;2.40;2.20;;;10.20;99.90;;;;;;4914343;29;20261;-70
2023/10/28 02:20:16;;;;;;;3.20;2.03;;;10.20;99.90;;;;;;4921718;29;20925;-70
2023/10/28 02:22:42;;;;;;;2.60;2.30;;;10.20;99.90;;;;;;4904061;29;20510;-70
2023/10/28 02:25:09;;;;;;;2.37;2.10;;;10.20;99.90;;;;;;4934098;29;20213;-70
2023/10/28 02:27:37;;;;;;;4.10;2.50;;;10.20;99.90;;;;;;4918894;29;20862;-70
2023/10/28 02:30:04;;;;;;;4.70;2.67;;;10.20;99.90;;;;;;4919985;29;20723;-69
2023/10/28 02:32:32;;;;;;;3.40;2.40;;;10.20;99.90;;;;;;4925843;29;20721;-70
2023/10/28 02:34:59;;;;;;;3.33;2.47;;;10.20;99.90;;;;;;4926979;29;20442;-70
2023/10/28 02:37:26;;;;;;;2.67;2.17;;;10.20;99.90;;;;;;4921173;29;20601;-69
2023/10/28 02:39:53;;;;;;;3.17;2.80;;;10.20;99.90;;;;;;4903351;29;20481;-70
2023/10/28 02:42:21;;;;;;;2.53;2.33;;;10.20;99.90;;;;;;4897300;29;20481;-70
2023/10/28 02:44:46;;;;;;;2.37;2.17;;;10.20;99.90;;;;;;4931273;29;20885;-69
2023/10/28 02:47:12;;;;;;;3.73;3.07;;;10.20;99.90;;;;;;4934451;29;20426;-71
2023/10/28 02:49:38;;;;;;;4.70;2.97;;;10.20;99.90;;;;;;4912082;29;20194;-71
2023/10/28 02:52:04;;;;;;;2.60;2.40;;;10.20;99.90;;;;;;4918376;29;20677;-70
2023/10/28 02:54:29;;;;;;;3.00;2.60;;;10.10;99.90;;;;;;4925999;29;20224;-70
2023/10/28 02:56:58;;;;;;;3.03;2.10;;;10.10;99.90;;;;;;4915030;29;20564;-70
2023/10/28 02:59:24;;;;;;;3.47;2.70;;;10.10;99.90;;;;;;4911370;29;20501;-70
2023/10/28 03:01:49;;;;;;;2.10;1.83;;;10.10;99.90;;;;;;4930121;29;20437;-72
2023/10/28 03:04:16;;;;;;;2.27;1.77;;;10.10;99.90;;;;;;4929356;29;20762;-70
2023/10/28 03:06:42;;;;;;;2.77;2.10;;;10.10;99.90;;;;;;4937381;29;20440;-70
2023/10/28 03:09:08;;;;;;;2.93;1.97;;;10.00;99.90;;;;;;4946585;29;20720;-69
2023/10/28 03:11:33;;;;;;;2.00;1.57;;;10.00;99.90;;;;;;4916855;29;20197;-70
2023/10/28 03:13:59;;;;;;;2.07;1.40;;;10.00;99.90;;;;;;4928984;29;20213;-69
2023/10/28 03:16:25;;;;;;;1.73;1.63;;;9.90;99.90;;;;;;4927203;29;20261;-70
2023/10/28 03:18:51;;;;;;;2.00;1.40;;;9.90;99.90;;;;;;4909706;29;20265;-69
2023/10/28 03:21:17;;;;;;;3.70;1.57;;;9.90;99.90;;;;;;4920411;29;20753;-71
2023/10/28 03:23:43;;;;;;;2.17;1.50;;;9.90;99.90;;;;;;4929244;29;20201;-71
2023/10/28 03:26:08;;;;;;;2.50;1.63;;;9.90;99.90;;;;;;4922724;29;20261;-70
2023/10/28 03:28:34;;;;;;;1.97;1.40;;;9.80;99.90;;;;;;4932438;29;20190;-69
2023/10/28 03:31:06;;;;;;;1.77;1.40;;;9.80;99.90;;;;;;4928478;29;20190;-71
2023/10/28 03:33:32;;;;;;;1.80;1.43;;;9.80;99.90;;;;;;4909412;29;20426;-70
2023/10/28 03:35:57;;;;;;;2.70;1.67;;;9.80;99.90;;;;;;4931491;29;20810;-70
2023/10/28 03:38:23;;;;;;;4.37;1.70;;;9.70;99.90;;;;;;4945155;29;20185;-69
2023/10/28 03:40:49;;;;;;;3.40;1.50;;;9.60;99.90;;;;;;4924375;29;20608;-69
2023/10/28 03:43:14;;;;;;;1.40;1.30;;;9.60;99.90;;;;;;4930770;29;20506;-70
2023/10/28 03:45:40;;;;;;;2.23;1.43;;;9.50;99.90;;;;;;4931029;29;20510;-70
2023/10/28 03:48:05;;;;;;;2.57;1.53;;;9.60;99.90;;;;;;4926105;29;20193;-69
2023/10/28 03:50:31;;;;;;;2.57;1.50;;;9.60;99.90;;;;;;4926116;29;20198;-70
2023/10/28 03:52:56;;;;;;;2.90;1.50;;;9.60;99.90;;;;;;4924870;29;20577;-69
2023/10/28 03:55:23;;;;;;;2.90;1.50;;;9.50;99.90;;;;;;4922591;29;20648;-70
2023/10/28 03:57:48;;;;;;;2.80;2.00;;;9.40;99.90;;;;;;4924612;29;20229;-69
2023/10/28 04:00:14;;;;;;;2.80;1.43;;;9.30;99.90;;;;;;4924579;29;20634;-70
2023/10/28 04:02:40;;;;;;;3.43;1.87;;;9.20;99.90;;;;;;4931231;29;20529;-69
2023/10/28 04:05:06;;;;;;;2.33;1.90;;;9.10;99.90;;;;;;4923360;29;20481;-69
2023/10/28 04:07:31;;;;;;;2.27;1.40;;;9.10;99.90;;;;;;4942955;29;20264;-69
2023/10/28 04:10:03;;;;;;;1.80;1.30;;;9.10;99.90;;;;;;4937471;29;20473;-69
2023/10/28 04:12:30;;;;;;;2.83;2.17;;;9.00;99.90;;;;;;4924723;29;20194;-69
2023/10/28 04:14:57;;;;;;;1.70;1.43;;;9.00;99.90;;;;;;4925210;29;20478;-69
2023/10/28 04:17:24;;;;;;;2.60;1.63;;;8.90;99.90;;;;;;4923025;29;20698;-70
2023/10/28 04:19:50;;;;;;;2.07;1.50;;;8.90;99.90;;;;;;4938215;29;20461;-70
2023/10/28 04:22:15;;;;;;;2.13;1.47;;;8.90;99.90;;;;;;4924197;29;20754;-70
2023/10/28 04:24:41;;;;;;;2.60;1.37;;;8.90;99.90;;;;;;4941463;29;20235;-69
2023/10/28 04:27:07;;;;;;;1.83;1.57;;;8.80;99.90;;;;;;4941852;29;20197;-70
2023/10/28 04:29:32;;;;;;;1.87;1.40;;;8.80;99.90;;;;;;4926021;29;20226;-69
2023/10/28 04:31:58;;;;;;;3.30;1.47;;;8.80;99.90;;;;;;4890809;29;20285;-69
2023/10/28 04:34:23;;;;;;;1.97;1.33;;;8.80;99.90;;;;;;4915129;29;20225;-71
2023/10/28 04:36:49;;;;;;;1.83;1.40;;;8.90;99.90;;;;;;4930297;29;20710;-71
2023/10/28 04:39:15;;;;;;;2.37;1.57;;;8.90;99.90;;;;;;4942586;29;20502;-70
2023/10/28 04:41:40;;;;;;;2.23;1.30;;;9.00;99.90;;;;;;4924271;29;20182;-70
2023/10/28 04:44:06;;;;;;;5.03;1.50;;;9.10;99.90;;;;;;4942069;29;20202;-70
2023/10/28 04:46:31;;;;;;;1.40;1.13;;;9.10;99.90;;;;;;4941510;29;20260;-70
2023/10/28 04:48:57;;;;;;;1.90;1.43;;;9.20;99.90;;;;;;4932422;29;20212;-70
2023/10/28 04:51:24;;;;;;;1.50;1.40;;;9.20;99.90;;;;;;4941585;29;20190;-70
2023/10/28 04:53:50;;;;;;;3.00;1.73;;;9.20;99.90;;;;;;4929644;29;20194;-70
2023/10/28 04:56:18;;;;;;;2.87;1.47;;;9.20;99.90;;;;;;4907261;29;20520;-70
2023/10/28 04:58:43;;;;;;;2.10;1.47;;;9.30;99.90;;;;;;4928785;29;20520;-71
2023/10/28 05:01:09;;;;;;;3.47;2.00;;;9.30;99.90;;;;;;4922354;29;20793;-71
2023/10/28 05:03:35;;;;;;;2.00;1.80;;;9.30;99.90;;;;;;4922746;29;20242;-70
2023/10/28 05:06:02;;;;;;;2.57;1.60;;;9.30;99.90;;;;;;4927132;29;20444;-72
2023/10/28 05:08:28;;;;;;;2.60;1.80;;;9.30;99.90;;;;;;4941686;29;20197;-70
2023/10/28 05:10:54;;;;;;;3.47;1.93;;;9.30;99.90;;;;;;4929341;29;20437;-70
2023/10/28 05:13:20;;;;;;;2.90;1.87;;;9.30;99.90;;;;;;4929702;29;20430;-69
2023/10/28 05:15:45;;;;;;;5.07;2.70;;;9.40;99.90;;;;;;4922086;29;20434;-69
2023/10/28 05:18:11;;;;;;;2.73;2.50;;;9.40;99.90;;;;;;4922307;29;20186;-70
2023/10/28 05:20:36;;;;;;;3.40;2.43;;;9.40;99.90;;;;;;4937892;29;20361;-70
2023/10/28 05:23:02;;;;;;;3.53;1.90;;;9.40;99.90;;;;;;4938709;29;20204;-71
2023/10/28 05:25:28;;;;;;;3.87;2.00;;;9.40;99.90;;;;;;4923260;29;20225;-69
2023/10/28 05:27:53;;;;;;;3.70;2.27;;;9.40;99.90;;;;;;4927624;29;20530;-70
2023/10/28 05:30:19;;;;;;;4.23;1.80;;;9.40;99.90;;;;;;4922136;29;20233;-70
2023/10/28 05:32:44;;;;;;;2.50;1.83;;;9.40;99.90;;;;;;4921881;29;20259;-71
2023/10/28 05:35:11;;;;;;;3.30;1.63;;;9.40;99.90;;;;;;4933555;29;20225;-70
2023/10/28 05:37:37;;;;;;;6.50;2.30;;;9.30;99.90;;;;;;4925538;29;20190;-70
2023/10/28 05:40:04;;;;;;;5.97;2.10;;;9.40;99.90;;;;;;4939771;29;20465;-70
2023/10/28 05:42:30;;;;;;;4.40;2.23;;;9.40;99.90;;;;;;4934013;29;20445;-70
2023/10/28 05:44:55;;;;;;;4.00;2.07;;;9.40;99.90;;;;;;4921452;29;20446;-70
2023/10/28 05:47:22;;;;;;;3.00;1.80;;;9.40;99.90;;;;;;4927329;29;20198;-71
2023/10/28 05:49:47;;;;;;;3.67;1.93;;;9.30;99.90;;;;;;4932400;29;20435;-70
2023/10/28 05:52:18;;;;;;;3.10;1.90;;;9.30;99.90;;;;;;4930371;29;20194;-70
2023/10/28 05:54:43;;;;;;;2.80;1.27;;;9.30;99.90;;;;;;4923926;29;20520;-71
2023/10/28 05:57:09;;;;;;;2.87;1.80;;;9.30;99.90;;;;;;4936243;29;20549;-71
2023/10/28 05:59:35;;;;;;;4.93;1.27;;;9.30;99.90;;;;;;4921718;29;20225;-70
2023/10/28 06:02:03;;;;;;;2.50;1.10;;;9.30;99.90;;;;;;4934598;29;20190;-72
2023/10/28 06:04:31;;;;;;;1.40;1.20;;;9.30;99.90;;;;;;4940728;29;20209;-71
2023/10/28 06:06:57;;;;;;;4.63;1.90;;;9.40;99.90;;;;;;4930824;29;20446;-71
2023/10/28 06:09:23;;;;;;;2.93;1.30;;;9.40;99.90;;;;;;4940115;29;20877;-71
2023/10/28 06:11:50;;;;;;;3.00;1.90;;;9.40;99.90;;;;;;4924690;29;20442;-73
2023/10/28 06:14:16;;;;;;;2.13;1.23;;;9.40;99.90;;;;;;4921555;29;20434;-69
2023/10/28 06:16:43;;;;;;;2.50;1.90;;;9.30;99.90;;;;;;4905182;29;20506;-69
2023/10/28 06:19:10;;;;;;;1.70;1.50;;;9.30;99.90;;;;;;4923674;29;20463;-70
2023/10/28 06:21:36;;;;;;;1.90;1.70;;;9.30;99.90;;;;;;4939844;29;20695;-68
2023/10/28 06:24:02;;;;;;;2.10;1.23;;;9.40;99.90;;;;;;4940894;29;20568;-70
2023/10/28 06:26:28;;;;;;;3.70;2.07;;;9.40;99.90;;;;;;4932828;29;20485;-69
2023/10/28 06:28:54;;;;;;;6.23;2.63;;;9.40;99.90;;;;;;4940891;29;20426;-70
2023/10/28 06:31:20;;;;;;;2.50;1.63;;;9.50;99.90;;;;;;4940697;29;20205;-70
2023/10/28 06:33:46;;;;;;;2.10;1.53;;;9.50;99.90;;;;;;4941328;29;20577;-71
2023/10/28 06:36:11;;;;;;;2.00;1.50;;;9.50;99.90;;;;;;4940488;29;20441;-70
2023/10/28 06:38:37;;;;;;;1.63;1.40;;;9.60;99.90;;;;;;4925027;29;20281;-73
2023/10/28 06:41:03;;;;;;;3.10;1.63;;;9.60;99.90;;;;;;4931395;29;20641;-71
2023/10/28 06:43:28;;;;;;;1.70;1.30;;;9.70;99.90;;;;;;4940320;29;20227;-71
2023/10/28 06:45:54;;;;;;;4.00;1.60;;;9.70;99.90;;;;;;4923341;29;20198;-69
2023/10/28 06:48:20;;;;;;;3.37;1.50;;;9.80;99.90;;;;;;4931489;29;20204;-73
2023/10/28 06:50:47;;;;;;;2.17;1.30;;;9.80;99.90;;;;;;4911300;29;20196;-70
2023/10/28 06:53:13;;;;;;;2.37;1.50;;;9.90;99.90;;;;;;4913961;29;20430;-71
2023/10/28 06:55:39;;;;;;;1.63;1.40;;;10.00;99.90;;;;;;4942913;29;20789;-72
2023/10/28 06:58:04;;;;;;;1.50;1.20;;;10.00;99.90;;;;;;4942826;29;20625;-71
2023/10/28 07:00:31;;;;;;;4.13;1.87;;;10.10;99.90;;;;;;4942540;29;20583;-71
2023/10/28 07:02:57;;;;;;;3.00;1.70;;;10.10;99.90;;;;;;4941406;29;20186;-70
2023/10/28 07:05:26;;;;;;;2.90;1.70;;;10.20;99.90;;;;;;4936274;29;20446;-71
2023/10/28 07:07:51;;;;;;;2.53;2.00;;;10.20;99.90;;;;;;4937709;29;20197;-71
2023/10/28 07:10:17;;;;;;;2.80;2.03;;;10.30;99.90;;;;;;4938416;29;20433;-71
2023/10/28 07:12:43;;;;;;;3.40;2.20;;;10.30;99.90;;;;;;4947363;29;20504;-72
2023/10/28 07:15:10;;;;;;;1.40;1.30;;;10.30;99.90;;;;;;4916129;29;20463;-71
2023/10/28 07:17:36;;;;;;;1.80;1.70;;;10.30;99.90;;;;;;4935455;29;20426;-73
2023/10/28 07:20:03;;;;;;;1.97;1.77;;;10.40;99.90;;;;;;4937279;29;20517;-71
2023/10/28 07:22:28;;;;;;;2.00;1.40;;;10.40;99.90;;;;;;4921966;29;20434;-70
2023/10/28 07:24:54;;;;;;;2.27;2.07;;;10.50;99.90;;;;;;4927300;29;20438;-72
2023/10/28 07:27:20;;;;;;;1.33;1.23;;;10.50;99.90;;;;;;4939053;29;20210;-72
2023/10/28 07:29:48;;;;;;;3.60;1.53;;;10.50;99.90;;;;;;4943870;29;20197;-71
2023/10/28 07:32:14;;;;;;;1.80;1.30;;;10.50;99.90;;;;;;4933543;29;20426;-70
2023/10/28 07:34:40;;;;;;;2.80;1.83;;;10.50;99.90;;;;;;4926159;29;20529;-72
2023/10/28 07:37:06;;;;;;;1.60;1.20;;;10.50;99.90;;;;;;4944225;29;20485;-71
2023/10/28 07:39:32;;;;;;;1.57;1.07;;;10.40;99.90;;;;;;4944214;29;20449;-72
2023/10/28 07:41:58;;;;;;;1.93;1.20;;;10.40;99.90;;;;;;4935229;29;20270;-72
2023/10/28 07:44:23;;;;;;;1.57;1.20;;;10.30;99.90;;;;;;4926699;29;20606;-71
2023/10/28 07:46:49;;;;;;;2.00;1.10;;;10.30;99.90;;;;;;4924918;29;20209;-71
2023/10/28 07:49:15;;;;;;;2.20;1.27;;;10.20;99.90;;;;;;4943648;29;20197;-69
2023/10/28 07:51:41;;;;;;;1.40;1.20;;;10.20;99.90;;;;;;4944134;29;20449;-72
2023/10/28 07:54:07;;;;;;;1.50;1.00;;;10.10;99.90;;;;;;4936993;29;20186;-72
2023/10/28 07:56:33;;;;;;;1.53;1.10;;;10.10;99.90;;;;;;4933989;29;20210;-73
2023/10/28 07:59:01;;;;;;;2.10;1.17;;;10.10;99.90;;;;;;4944590;29;20529;-72
2023/10/28 08:01:30;;;;;;;1.60;1.20;;;10.20;99.90;;;;;;4944260;29;20194;-70
2023/10/28 08:03:57;;;;;;;1.40;1.10;;;10.20;99.90;;;;;;4927394;29;20446;-71
2023/10/28 08:06:23;;;;;;;1.83;1.20;;;10.20;99.90;;;;;;4924329;29;20470;-71
2023/10/28 08:08:48;;;;;;;2.57;1.40;;;10.20;99.90;;;;;;4935958;29;20462;-71
2023/10/28 08:11:16;;;;;;;1.50;1.17;;;10.30;99.90;;;;;;4931902;29;20434;-70
2023/10/28 08:13:43;;;;;;;1.50;0.90;;;10.30;99.90;;;;;;4938652;29;20194;-71
2023/10/28 08:16:09;;;;;;;3.30;1.80;;;10.30;99.90;;;;;;4931325;29;20464;-71
2023/10/28 08:18:35;;;;;;;1.43;1.33;;;10.40;99.90;;;;;;4939825;29;20573;-72
2023/10/28 08:21:01;;;;;;;2.37;1.50;;;10.40;99.90;;;;;;4909767;29;20458;-70
2023/10/28 08:23:30;;;;;;;3.10;1.50;;;10.30;99.90;;;;;;4925849;29;20521;-72
2023/10/28 08:25:58;;;;;;;1.83;1.43;;;10.40;99.90;;;;;;4926260;29;20602;-72
2023/10/28 08:28:26;;;;;;;2.53;1.87;;;10.50;99.90;;;;;;4916831;29;20441;-74
2023/10/28 08:30:52;;;;;;;2.63;1.90;;;10.50;99.90;;;;;;4944869;29;20970;-72
2023/10/28 08:33:20;;;;;;;3.90;1.87;;;10.60;99.90;;;;;;4934749;29;20441;-71
2023/10/28 08:35:47;;;;;;;1.87;1.67;;;10.60;99.90;;;;;;4933983;29;20472;-72
2023/10/28 08:38:16;;;;;;;2.50;1.60;;;10.60;99.90;;;;;;4927337;29;20429;-72
2023/10/28 08:40:45;;;;;;;4.00;1.90;;;10.60;99.90;;;;;;4945910;29;20480;-73
2023/10/28 08:43:11;;;;;;;2.73;1.30;;;10.60;99.90;;;;;;4927316;29;20426;-71
2023/10/28 08:45:39;;;;;;;3.30;1.70;;;10.70;99.90;;;;;;4944219;29;20445;-70
2023/10/28 08:48:05;;;;;;;2.00;1.80;;;10.70;99.90;;;;;;4944246;29;20240;-71
2023/10/28 08:50:33;;;;;;;2.83;1.47;;;10.70;99.90;;;;;;4932705;29;20422;-72
2023/10/28 08:53:00;;;;;;;3.97;1.67;;;10.80;99.90;;;;;;4909344;29;20198;-72
2023/10/28 08:55:26;;;;;;;1.97;1.40;;;10.80;99.90;;;;;;4920449;29;20449;-73
2023/10/28 08:57:52;;;;;;;3.30;1.67;;;10.80;99.90;;;;;;4928783;29;20522;-72
2023/10/28 09:00:22;;;;;;;1.93;1.77;;;10.80;99.90;;;;;;4927711;29;20658;-73
2023/10/28 09:02:49;;;;;;;2.27;1.40;;;10.80;99.90;;;;;;4943602;29;20422;-72
2023/10/28 09:05:15;;;;;;;2.63;2.07;;;10.90;99.90;;;;;;4927837;29;20562;-74
2023/10/28 09:07:45;;;;;;;4.63;2.40;;;10.90;99.90;;;;;;4932251;29;20427;-72
2023/10/28 09:10:12;;;;;;;2.80;2.10;;;11.00;99.90;;;;;;4922308;29;20427;-72
2023/10/28 09:12:38;;;;;;;2.33;2.13;;;11.00;99.90;;;;;;4934442;29;20435;-73
2023/10/28 09:15:04;;;;;;;4.07;2.33;;;11.10;99.90;;;;;;4943049;29;20457;-72
2023/10/28 09:17:30;;;;;;;4.53;2.10;;;11.20;99.90;;;;;;4933424;29;20197;-72
2023/10/28 09:19:56;;;;;;;2.30;1.70;;;11.30;99.90;;;;;;4908164;29;20955;-76
2023/10/28 09:22:23;;;;;;;2.20;1.83;;;11.40;99.90;;;;;;4928459;29;20194;-72
2023/10/28 09:24:52;;;;;;;2.23;1.60;;;11.40;99.90;;;;;;4928935;29;20442;-74
2023/10/28 09:27:18;;;;;;;3.93;1.90;;;11.50;99.90;;;;;;4922963;29;20442;-72
2023/10/28 09:29:44;;;;;;;2.27;1.70;;;11.50;99.90;;;;;;4942502;29;20427;-72
2023/10/28 09:32:10;;;;;;;2.37;1.40;;;11.60;99.90;;;;;;4938907;29;20426;-76
2023/10/28 09:34:40;;;;;;;2.03;1.70;;;11.70;99.90;;;;;;4925925;29;20206;-72
2023/10/28 09:37:07;;;;;;;3.37;1.70;;;11.80;99.90;;;;;;4932480;29;20464;-72
2023/10/28 09:39:35;;;;;;;3.40;2.13;;;11.80;99.90;;;;;;4924779;29;20644;-71
2023/10/28 09:42:00;;;;;;;2.87;2.13;;;12.00;99.90;;;;;;4940965;29;20464;-74
2023/10/28 09:44:27;;;;;;;2.67;1.70;;;12.10;99.90;;;;;;4908772;29;20839;-71
2023/10/28 09:47:02;;;;;;;2.37;1.63;;;12.30;99.90;;;;;;4943865;29;20494;-72
2023/10/28 09:49:30;;;;;;;1.83;1.30;;;12.40;99.90;;;;;;4919216;29;20449;-72
2023/10/28 09:52:05;;;;;;;1.30;0.97;;;12.50;99.90;;;;;;4933170;29;20546;-70
2023/10/28 09:54:36;;;;;;;1.83;1.30;;;12.70;99.90;;;;;;4943541;29;20488;-72
2023/10/28 09:57:03;;;;;;;2.77;1.47;;;12.80;99.90;;;;;;4931153;29;20704;-73
2023/10/28 09:59:33;;;;;;;2.63;1.50;;;13.10;99.90;;;;;;4926013;29;20484;-72
2023/10/28 10:02:32;;;;;;;1.50;1.20;;;13.30;99.90;;;;;;4927434;29;20425;-72
2023/10/28 10:05:10;;;;;;;1.30;1.10;;;13.60;99.90;;;;;;4933996;29;20819;-75
2023/10/28 10:07:36;;;;;;;1.83;1.33;;;13.70;99.90;;;;;;4936154;29;20425;-73
2023/10/28 10:10:19;;;;;;;1.17;1.07;;;13.90;99.90;;;;;;4931234;29;20469;-74
2023/10/28 10:12:48;;;;;;;1.80;1.20;;;14.10;99.90;;;;;;4921876;29;20222;-76
2023/10/28 10:15:19;;;;;;;1.83;1.30;;;14.30;99.90;;;;;;4920975;29;20472;-72
2023/10/28 10:18:06;;;;;;;1.70;1.10;;;14.60;99.90;;;;;;4935739;29;20450;-71
2023/10/28 10:20:33;;;;;;;1.53;1.00;;;14.80;99.90;;;;;;4927314;29;20500;-73
2023/10/28 10:23:00;;;;;;;1.83;0.97;;;14.90;99.90;;;;;;4918211;29;20410;-72
2023/10/28 10:25:41;;;;;;;2.70;1.33;;;15.00;99.90;;;;;;4945210;29;20881;-75
2023/10/28 10:28:15;;;;;;;1.83;1.20;;;15.00;99.90;;;;;;4925819;29;20434;-74
2023/10/28 10:30:42;;;;;;;1.43;1.00;;;15.00;99.90;;;;;;4924904;29;20430;-72
2023/10/28 10:33:08;;;;;;;1.43;1.10;;;14.90;99.90;;;;;;4936630;29;20429;-73
2023/10/28 10:35:38;;;;;;;3.70;2.13;;;14.80;99.90;;;;;;4943972;29;20520;-72
2023/10/28 10:38:06;;;;;;;3.17;1.67;;;14.80;99.90;;;;;;4943203;29;20413;-71
2023/10/28 10:40:47;;;;;;;3.30;1.87;;;14.60;99.90;;;;;;4933423;29;20485;-74
2023/10/28 10:43:20;;;;;;;2.33;1.50;;;14.40;99.90;;;;;;4926233;29;20426;-72
2023/10/28 10:45:47;;;;;;;4.10;2.00;;;14.20;99.90;;;;;;4941698;29;20543;-73
2023/10/28 10:48:13;;;;;;;4.63;1.70;;;14.00;99.90;;;;;;4913683;29;20457;-72
2023/10/28 10:50:40;;;;;;;3.33;1.77;;;13.80;99.90;;;;;;4924200;29;20505;-74
2023/10/28 10:53:06;;;;;;;1.93;1.30;;;13.70;99.90;;;;;;4920045;29;20771;-75
2023/10/28 10:55:32;;;;;;;3.33;1.90;;;13.60;99.90;;;;;;4933246;29;20502;-75
2023/10/28 10:57:58;;;;;;;4.77;1.70;;;13.50;99.90;;;;;;4927825;29;20229;-72
2023/10/28 11:00:24;;;;;;;7.00;2.60;;;13.50;99.90;;;;;;4926141;29;20506;-76
2023/10/28 11:02:50;;;;;;;4.27;1.97;;;13.60;99.90;;;;;;4946619;29;20417;-74
2023/10/28 11:05:17;;;;;;;3.87;1.63;;;13.70;99.90;;;;;;4937202;29;20461;-75
2023/10/28 11:07:45;;;;;;;5.70;2.43;;;13.70;99.90;;;;;;4924707;29;20477;-73
2023/10/28 11:10:11;;;;;;;4.57;2.20;;;13.80;99.90;;;;;;4933844;29;20474;-74
2023/10/28 11:12:38;;;;;;;3.33;2.60;;;13.90;99.90;;;;;;4930445;29;20429;-75
2023/10/28 11:15:04;;;;;;;4.57;2.60;;;14.00;99.90;;;;;;4940627;29;20444;-74
2023/10/28 11:17:30;;;;;;;7.43;2.80;;;14.10;99.90;;;;;;4929179;29;20418;-74
2023/10/28 11:19:58;;;;;;;4.87;1.90;;;14.30;99.90;;;;;;4932399;29;20457;-72
2023/10/28 11:22:25;;;;;;;4.70;1.57;;;14.30;99.90;;;;;;4940395;29;20426;-72
2023/10/28 11:25:00;;;;;;;3.73;2.10;;;14.50;99.90;;;;;;4942664;29;20441;-74
2023/10/28 11:27:26;;;;;;;5.33;2.43;;;14.60;99.90;;;;;;4939873;29;20417;-74
2023/10/28 11:29:53;;;;;;;4.70;3.10;;;14.60;99.90;;;;;;4932245;29;20437;-73
2023/10/28 11:32:19;;;;;;;7.13;3.00;;;14.80;99.90;;;;;;4948774;29;20421;-74
2023/10/28 11:34:46;;;;;;;8.77;3.87;;;14.80;99.90;;;;;;4948552;29;20449;-75
2023/10/28 11:37:11;;;;;;;6.17;2.90;;;14.80;99.90;;;;;;4941740;29;20706;-73
2023/10/28 11:39:44;;;;;;;4.67;2.10;;;14.80;99.90;;;;;;4928892;29;20466;-74
2023/10/28 11:42:14;;;;;;;7.80;2.50;;;14.80;99.90;;;;;;4932688;29;20209;-75
2023/10/28 11:44:50;;;;;;;6.40;3.53;;;14.80;99.90;;;;;;4947591;29;20441;-72
2023/10/28 11:47:17;;;;;;;5.60;2.33;;;14.80;99.90;;;;;;4926594;29;20494;-76
2023/10/28 11:49:43;;;;;;;4.93;2.23;;;14.90;99.90;;;;;;4916371;29;20441;-75
2023/10/28 11:52:11;;;;;;;4.80;2.07;;;15.00;99.90;;;;;;4908565;29;20476;-73
2023/10/28 11:54:37;;;;;;;4.13;1.80;;;15.20;99.90;;;;;;4950804;29;20481;-75
2023/10/28 11:57:03;;;;;;;4.70;2.73;;;15.40;99.90;;;;;;4939391;29;20433;-75
2023/10/28 11:59:29;;;;;;;6.20;2.60;;;15.50;99.90;;;;;;4941950;29;20533;-73
2023/10/28 12:01:54;;;;;;;7.33;2.80;;;15.60;99.90;;;;;;4937918;29;20637;-75
2023/10/28 12:04:24;;;;;;;5.23;2.83;;;15.50;99.90;;;;;;4950524;29;20217;-76
2023/10/28 12:06:51;;;;;;;3.23;1.70;;;15.50;99.90;;;;;;4917142;29;20353;-73
2023/10/28 12:09:16;;;;;;;10.90;3.40;;;15.50;99.90;;;;;;4943215;29;20419;-74
2023/10/28 12:11:42;;;;;;;6.90;1.87;;;15.40;99.90;;;;;;4940617;29;20686;-74
2023/10/28 12:14:08;;;;;;;7.77;2.13;;;15.40;99.90;;;;;;4944434;29;20190;-76
2023/10/28 12:16:40;;;;;;;5.50;2.13;;;15.30;99.90;;;;;;4941105;29;20518;-77
2023/10/28 12:19:06;;;;;;;3.63;1.97;;;15.20;99.90;;;;;;4941283;29;20206;-75
2023/10/28 12:21:33;;;;;;;4.50;1.67;;;15.20;99.90;;;;;;4907240;29;20442;-75
2023/10/28 12:23:59;;;;;;;3.73;1.70;;;15.10;99.90;;;;;;4936650;29;20423;-77
2023/10/28 12:26:24;;;;;;;5.40;2.17;;;15.10;99.90;;;;;;4918733;29;20445;-77
2023/10/28 12:28:52;;;;;;;5.23;2.37;;;15.00;99.90;;;;;;4925794;29;20186;-76
2023/10/28 12:31:18;;;;;;;4.83;1.50;;;14.90;99.90;;;;;;4905280;29;20190;-73
2023/10/28 12:33:44;;;;;;;8.27;2.10;;;14.80;99.90;;;;;;4938326;29;20441;-76
2023/10/28 12:36:10;;;;;;;3.80;1.60;;;14.70;99.90;;;;;;4930993;29;20455;-74
2023/10/28 12:38:36;;;;;;;4.60;1.73;;;14.60;99.90;;;;;;4929292;29;20193;-75
2023/10/28 12:41:03;;;;;;;3.20;1.53;;;14.60;99.90;;;;;;4937997;29;20712;-74
2023/10/28 12:43:29;;;;;;;2.20;1.53;;;14.60;99.90;;;;;;4946167;29;20442;-76
2023/10/28 12:45:55;;;;;;;3.40;2.53;;;14.70;99.90;;;;;;4929749;29;20547;-75
2023/10/28 12:48:20;;;;;;;3.77;1.90;;;14.80;99.90;;;;;;4907971;29;20197;-75